sensor_id;sensor_type;location;lat;lon;timestamp;temperature;humidity
67901;DHT22;54700;51.796;10.956;2024-02-04T00:00:37;9.80;78.70
67901;DHT22;54700;51.796;10.956;2024-02-04T00:03:05;9.70;79.90
67901;DHT22;54700;51.796;10.956;2024-02-04T00:05:32;9.60;80.40
67901;DHT22;54700;51.796;10.956;2024-02-04T00:07:59;9.60;81.40
67901;DHT22;54700;51.796;10.956;2024-02-04T00:10:27;9.50;82.30
67901;DHT22;54700;51.796;10.956;2024-02-04T00:12:54;9.40;82.80
67901;DHT22;54700;51.796;10.956;2024-02-04T00:15:21;9.40;84.00
67901;DHT22;54700;51.796;10.956;2024-02-04T00:17:48;9.30;84.40
67901;DHT22;54700;51.796;10.956;2024-02-04T00:20:16;9.30;84.80
67901;DHT22;54700;51.796;10.956;2024-02-04T00:22:43;9.30;84.40
67901;DHT22;54700;51.796;10.956;2024-02-04T00:25:10;9.30;84.80
67901;DHT22;54700;51.796;10.956;2024-02-04T00:27:37;9.30;84.30
67901;DHT22;54700;51.796;10.956;2024-02-04T00:30:05;9.30;84.50
67901;DHT22;54700;51.796;10.956;2024-02-04T00:32:33;9.30;84.70
67901;DHT22;54700;51.796;10.956;2024-02-04T00:35:00;9.30;85.70
67901;DHT22;54700;51.796;10.956;2024-02-04T00:37:29;9.30;86.60
67901;DHT22;54700;51.796;10.956;2024-02-04T00:39:56;9.20;86.90
67901;DHT22;54700;51.796;10.956;2024-02-04T00:42:23;9.20;87.30
67901;DHT22;54700;51.796;10.956;2024-02-04T00:44:50;9.10;88.00
67901;DHT22;54700;51.796;10.956;2024-02-04T00:47:17;9.10;88.30
67901;DHT22;54700;51.796;10.956;2024-02-04T00:49:43;9.00;88.60
67901;DHT22;54700;51.796;10.956;2024-02-04T00:52:10;9.00;88.90
67901;DHT22;54700;51.796;10.956;2024-02-04T00:54:39;9.00;89.00
67901;DHT22;54700;51.796;10.956;2024-02-04T00:57:06;9.00;89.40
67901;DHT22;54700;51.796;10.956;2024-02-04T00:59:32;9.00;89.70
67901;DHT22;54700;51.796;10.956;2024-02-04T01:01:59;9.00;89.80
67901;DHT22;54700;51.796;10.956;2024-02-04T01:04:26;8.90;89.80
67901;DHT22;54700;51.796;10.956;2024-02-04T01:06:53;8.90;89.90
67901;DHT22;54700;51.796;10.956;2024-02-04T01:09:20;8.90;90.30
67901;DHT22;54700;51.796;10.956;2024-02-04T01:11:48;8.90;90.50
67901;DHT22;54700;51.796;10.956;2024-02-04T01:14:15;8.90;90.90
67901;DHT22;54700;51.796;10.956;2024-02-04T01:16:42;8.80;91.30
67901;DHT22;54700;51.796;10.956;2024-02-04T01:19:08;8.70;91.30
67901;DHT22;54700;51.796;10.956;2024-02-04T01:21:35;8.70;91.70
67901;DHT22;54700;51.796;10.956;2024-02-04T01:24:02;8.60;91.50
67901;DHT22;54700;51.796;10.956;2024-02-04T01:26:28;8.60;91.80
67901;DHT22;54700;51.796;10.956;2024-02-04T01:28:56;8.60;92.00
67901;DHT22;54700;51.796;10.956;2024-02-04T01:31:23;8.60;92.00
67901;DHT22;54700;51.796;10.956;2024-02-04T01:33:50;8.60;92.00
67901;DHT22;54700;51.796;10.956;2024-02-04T01:36:17;8.60;91.50
67901;DHT22;54700;51.796;10.956;2024-02-04T01:38:44;8.70;91.60
67901;DHT22;54700;51.796;10.956;2024-02-04T01:41:10;8.70;91.00
67901;DHT22;54700;51.796;10.956;2024-02-04T01:43:37;8.70;91.00
67901;DHT22;54700;51.796;10.956;2024-02-04T01:46:05;8.60;90.50
67901;DHT22;54700;51.796;10.956;2024-02-04T01:48:33;8.60;89.60
67901;DHT22;54700;51.796;10.956;2024-02-04T01:51:01;8.60;89.60
67901;DHT22;54700;51.796;10.956;2024-02-04T01:53:28;8.60;88.10
67901;DHT22;54700;51.796;10.956;2024-02-04T01:55:58;8.60;86.80
67901;DHT22;54700;51.796;10.956;2024-02-04T01:58:25;8.70;86.30
67901;DHT22;54700;51.796;10.956;2024-02-04T02:00:52;8.70;86.20
67901;DHT22;54700;51.796;10.956;2024-02-04T02:03:21;8.70;86.00
67901;DHT22;54700;51.796;10.956;2024-02-04T02:05:48;8.70;85.60
67901;DHT22;54700;51.796;10.956;2024-02-04T02:08:15;8.80;85.30
67901;DHT22;54700;51.796;10.956;2024-02-04T02:10:42;8.80;85.00
67901;DHT22;54700;51.796;10.956;2024-02-04T02:13:14;8.80;84.40
67901;DHT22;54700;51.796;10.956;2024-02-04T02:15:45;8.80;84.20
67901;DHT22;54700;51.796;10.956;2024-02-04T02:18:16;8.90;84.00
67901;DHT22;54700;51.796;10.956;2024-02-04T02:21:01;8.90;84.00
67901;DHT22;54700;51.796;10.956;2024-02-04T02:23:40;8.90;83.90
67901;DHT22;54700;51.796;10.956;2024-02-04T02:26:21;9.00;82.90
67901;DHT22;54700;51.796;10.956;2024-02-04T02:28:51;9.00;82.70
67901;DHT22;54700;51.796;10.956;2024-02-04T02:31:18;9.10;82.50
67901;DHT22;54700;51.796;10.956;2024-02-04T02:33:45;9.20;82.20
67901;DHT22;54700;51.796;10.956;2024-02-04T02:36:13;9.20;82.30
67901;DHT22;54700;51.796;10.956;2024-02-04T02:38:49;9.20;82.60
67901;DHT22;54700;51.796;10.956;2024-02-04T02:41:24;9.20;82.50
67901;DHT22;54700;51.796;10.956;2024-02-04T02:43:57;9.20;82.80
67901;DHT22;54700;51.796;10.956;2024-02-04T02:46:26;9.20;82.90
67901;DHT22;54700;51.796;10.956;2024-02-04T02:48:54;9.20;83.30
67901;DHT22;54700;51.796;10.956;2024-02-04T02:51:24;9.10;83.20
67901;DHT22;54700;51.796;10.956;2024-02-04T02:53:51;9.10;83.30
67901;DHT22;54700;51.796;10.956;2024-02-04T02:56:20;9.10;82.80
67901;DHT22;54700;51.796;10.956;2024-02-04T02:58:49;9.10;82.80
67901;DHT22;54700;51.796;10.956;2024-02-04T03:01:15;9.10;82.60
67901;DHT22;54700;51.796;10.956;2024-02-04T03:03:42;9.10;82.40
67901;DHT22;54700;51.796;10.956;2024-02-04T03:06:09;9.20;81.90
67901;DHT22;54700;51.796;10.956;2024-02-04T03:08:36;9.20;81.90
67901;DHT22;54700;51.796;10.956;2024-02-04T03:11:03;9.20;82.10
67901;DHT22;54700;51.796;10.956;2024-02-04T03:13:30;9.20;82.30
67901;DHT22;54700;51.796;10.956;2024-02-04T03:15:58;9.30;82.60
67901;DHT22;54700;51.796;10.956;2024-02-04T03:18:25;9.30;83.10
67901;DHT22;54700;51.796;10.956;2024-02-04T03:20:52;9.30;83.30
67901;DHT22;54700;51.796;10.956;2024-02-04T03:23:19;9.30;83.50
67901;DHT22;54700;51.796;10.956;2024-02-04T03:25:46;9.30;84.30
67901;DHT22;54700;51.796;10.956;2024-02-04T03:28:13;9.30;84.40
67901;DHT22;54700;51.796;10.956;2024-02-04T03:30:40;9.30;84.80
67901;DHT22;54700;51.796;10.956;2024-02-04T03:33:08;9.30;85.10
67901;DHT22;54700;51.796;10.956;2024-02-04T03:35:37;9.30;85.40
67901;DHT22;54700;51.796;10.956;2024-02-04T03:38:04;9.30;85.50
67901;DHT22;54700;51.796;10.956;2024-02-04T03:40:31;9.30;85.40
67901;DHT22;54700;51.796;10.956;2024-02-04T03:42:58;9.30;85.70
67901;DHT22;54700;51.796;10.956;2024-02-04T03:45:25;9.30;85.80
67901;DHT22;54700;51.796;10.956;2024-02-04T03:47:51;9.30;85.70
67901;DHT22;54700;51.796;10.956;2024-02-04T03:50:21;9.40;85.70
67901;DHT22;54700;51.796;10.956;2024-02-04T03:52:49;9.40;85.80
67901;DHT22;54700;51.796;10.956;2024-02-04T03:55:15;9.40;86.00
67901;DHT22;54700;51.796;10.956;2024-02-04T03:57:45;9.30;86.00
67901;DHT22;54700;51.796;10.956;2024-02-04T04:00:12;9.40;86.40
67901;DHT22;54700;51.796;10.956;2024-02-04T04:02:40;9.40;86.50
67901;DHT22;54700;51.796;10.956;2024-02-04T04:05:10;9.40;86.90
67901;DHT22;54700;51.796;10.956;2024-02-04T04:07:39;9.30;86.70
67901;DHT22;54700;51.796;10.956;2024-02-04T04:10:06;9.30;86.90
67901;DHT22;54700;51.796;10.956;2024-02-04T04:12:33;9.30;86.90
67901;DHT22;54700;51.796;10.956;2024-02-04T04:15:00;9.30;87.00
67901;DHT22;54700;51.796;10.956;2024-02-04T04:17:27;9.30;87.20
67901;DHT22;54700;51.796;10.956;2024-02-04T04:19:53;9.30;87.20
67901;DHT22;54700;51.796;10.956;2024-02-04T04:22:20;9.30;87.20
67901;DHT22;54700;51.796;10.956;2024-02-04T04:24:49;9.30;87.20
67901;DHT22;54700;51.796;10.956;2024-02-04T04:27:15;9.30;87.30
67901;DHT22;54700;51.796;10.956;2024-02-04T04:29:42;9.30;87.40
67901;DHT22;54700;51.796;10.956;2024-02-04T04:32:09;9.20;87.50
67901;DHT22;54700;51.796;10.956;2024-02-04T04:34:36;9.20;87.50
67901;DHT22;54700;51.796;10.956;2024-02-04T04:37:03;9.20;87.90
67901;DHT22;54700;51.796;10.956;2024-02-04T04:39:30;9.20;88.00
67901;DHT22;54700;51.796;10.956;2024-02-04T04:41:58;9.10;88.10
67901;DHT22;54700;51.796;10.956;2024-02-04T04:44:25;9.10;87.80
67901;DHT22;54700;51.796;10.956;2024-02-04T04:46:52;9.10;87.80
67901;DHT22;54700;51.796;10.956;2024-02-04T04:49:19;9.20;87.70
67901;DHT22;54700;51.796;10.956;2024-02-04T04:51:48;9.20;87.70
67901;DHT22;54700;51.796;10.956;2024-02-04T04:54:15;9.20;87.40
67901;DHT22;54700;51.796;10.956;2024-02-04T04:56:42;9.20;87.40
67901;DHT22;54700;51.796;10.956;2024-02-04T04:59:11;9.30;87.30
67901;DHT22;54700;51.796;10.956;2024-02-04T05:01:37;9.30;87.10
67901;DHT22;54700;51.796;10.956;2024-02-04T05:04:11;9.30;87.10
67901;DHT22;54700;51.796;10.956;2024-02-04T05:06:38;9.30;87.20
67901;DHT22;54700;51.796;10.956;2024-02-04T05:09:05;9.30;86.90
67901;DHT22;54700;51.796;10.956;2024-02-04T05:11:32;9.30;86.90
67901;DHT22;54700;51.796;10.956;2024-02-04T05:13:59;9.40;86.60
67901;DHT22;54700;51.796;10.956;2024-02-04T05:16:27;9.40;86.50
67901;DHT22;54700;51.796;10.956;2024-02-04T05:18:54;9.40;86.50
67901;DHT22;54700;51.796;10.956;2024-02-04T05:21:21;9.50;86.30
67901;DHT22;54700;51.796;10.956;2024-02-04T05:23:47;9.50;86.30
67901;DHT22;54700;51.796;10.956;2024-02-04T05:26:17;9.40;86.50
67901;DHT22;54700;51.796;10.956;2024-02-04T05:28:44;9.40;86.60
67901;DHT22;54700;51.796;10.956;2024-02-04T05:31:11;9.40;86.60
67901;DHT22;54700;51.796;10.956;2024-02-04T05:33:39;9.40;86.60
67901;DHT22;54700;51.796;10.956;2024-02-04T05:36:06;9.40;86.60
67901;DHT22;54700;51.796;10.956;2024-02-04T05:38:33;9.40;86.90
67901;DHT22;54700;51.796;10.956;2024-02-04T05:41:00;9.30;87.30
67901;DHT22;54700;51.796;10.956;2024-02-04T05:43:27;9.30;89.00
67901;DHT22;54700;51.796;10.956;2024-02-04T05:45:54;9.20;90.10
67901;DHT22;54700;51.796;10.956;2024-02-04T05:48:21;9.20;90.60
67901;DHT22;54700;51.796;10.956;2024-02-04T05:50:49;9.10;91.00
67901;DHT22;54700;51.796;10.956;2024-02-04T05:53:16;9.00;90.90
67901;DHT22;54700;51.796;10.956;2024-02-04T05:55:43;9.00;91.10
67901;DHT22;54700;51.796;10.956;2024-02-04T05:58:10;9.10;90.10
67901;DHT22;54700;51.796;10.956;2024-02-04T06:00:39;9.20;89.50
67901;DHT22;54700;51.796;10.956;2024-02-04T06:03:06;9.30;90.70
67901;DHT22;54700;51.796;10.956;2024-02-04T06:05:33;9.30;90.50
67901;DHT22;54700;51.796;10.956;2024-02-04T06:08:01;9.40;87.90
67901;DHT22;54700;51.796;10.956;2024-02-04T06:10:28;9.40;88.60
67901;DHT22;54700;51.796;10.956;2024-02-04T06:12:55;9.40;87.20
67901;DHT22;54700;51.796;10.956;2024-02-04T06:15:22;9.40;84.80
67901;DHT22;54700;51.796;10.956;2024-02-04T06:17:49;9.50;83.70
67901;DHT22;54700;51.796;10.956;2024-02-04T06:20:15;9.50;83.00
67901;DHT22;54700;51.796;10.956;2024-02-04T06:22:42;9.50;81.80
67901;DHT22;54700;51.796;10.956;2024-02-04T06:25:11;9.60;81.40
67901;DHT22;54700;51.796;10.956;2024-02-04T06:27:38;9.50;80.30
67901;DHT22;54700;51.796;10.956;2024-02-04T06:30:06;9.60;79.60
67901;DHT22;54700;51.796;10.956;2024-02-04T06:32:34;9.60;79.60
67901;DHT22;54700;51.796;10.956;2024-02-04T06:35:00;9.60;79.10
67901;DHT22;54700;51.796;10.956;2024-02-04T06:37:28;9.60;78.70
67901;DHT22;54700;51.796;10.956;2024-02-04T06:39:54;9.60;78.70
67901;DHT22;54700;51.796;10.956;2024-02-04T06:42:23;9.60;78.60
67901;DHT22;54700;51.796;10.956;2024-02-04T06:44:49;9.60;78.40
67901;DHT22;54700;51.796;10.956;2024-02-04T06:47:16;9.50;78.40
67901;DHT22;54700;51.796;10.956;2024-02-04T06:49:43;9.50;78.00
67901;DHT22;54700;51.796;10.956;2024-02-04T06:52:11;9.50;78.00
67901;DHT22;54700;51.796;10.956;2024-02-04T06:54:38;9.50;77.80
67901;DHT22;54700;51.796;10.956;2024-02-04T06:57:05;9.50;77.90
67901;DHT22;54700;51.796;10.956;2024-02-04T06:59:34;9.50;77.60
67901;DHT22;54700;51.796;10.956;2024-02-04T07:02:01;9.40;77.50
67901;DHT22;54700;51.796;10.956;2024-02-04T07:04:27;9.40;77.20
67901;DHT22;54700;51.796;10.956;2024-02-04T07:06:54;9.40;77.50
67901;DHT22;54700;51.796;10.956;2024-02-04T07:09:21;9.40;77.30
67901;DHT22;54700;51.796;10.956;2024-02-04T07:11:48;9.40;77.20
67901;DHT22;54700;51.796;10.956;2024-02-04T07:14:15;9.40;77.10
67901;DHT22;54700;51.796;10.956;2024-02-04T07:16:43;9.40;76.90
67901;DHT22;54700;51.796;10.956;2024-02-04T07:19:10;9.40;77.00
67901;DHT22;54700;51.796;10.956;2024-02-04T07:21:37;9.50;76.50
67901;DHT22;54700;51.796;10.956;2024-02-04T07:24:04;9.60;76.30
67901;DHT22;54700;51.796;10.956;2024-02-04T07:26:31;9.60;76.40
67901;DHT22;54700;51.796;10.956;2024-02-04T07:28:58;9.60;76.50
67901;DHT22;54700;51.796;10.956;2024-02-04T07:31:25;9.60;76.70
67901;DHT22;54700;51.796;10.956;2024-02-04T07:33:53;9.60;77.00
67901;DHT22;54700;51.796;10.956;2024-02-04T07:36:20;9.60;76.90
67901;DHT22;54700;51.796;10.956;2024-02-04T07:38:47;9.70;77.10
67901;DHT22;54700;51.796;10.956;2024-02-04T07:41:14;9.70;77.20
67901;DHT22;54700;51.796;10.956;2024-02-04T07:43:42;9.80;77.70
67901;DHT22;54700;51.796;10.956;2024-02-04T07:46:09;9.70;77.90
67901;DHT22;54700;51.796;10.956;2024-02-04T07:48:36;9.70;78.50
67901;DHT22;54700;51.796;10.956;2024-02-04T07:51:04;9.70;79.00
67901;DHT22;54700;51.796;10.956;2024-02-04T07:53:31;9.70;79.70
67901;DHT22;54700;51.796;10.956;2024-02-04T07:55:58;9.70;80.30
67901;DHT22;54700;51.796;10.956;2024-02-04T07:58:25;9.60;80.90
67901;DHT22;54700;51.796;10.956;2024-02-04T08:00:52;9.60;80.80
67901;DHT22;54700;51.796;10.956;2024-02-04T08:03:19;9.50;80.80
67901;DHT22;54700;51.796;10.956;2024-02-04T08:05:46;9.50;80.40
67901;DHT22;54700;51.796;10.956;2024-02-04T08:08:14;9.50;80.20
67901;DHT22;54700;51.796;10.956;2024-02-04T08:10:41;9.50;79.20
67901;DHT22;54700;51.796;10.956;2024-02-04T08:13:09;9.50;78.20
67901;DHT22;54700;51.796;10.956;2024-02-04T08:15:35;9.50;78.00
67901;DHT22;54700;51.796;10.956;2024-02-04T08:18:01;9.60;77.20
67901;DHT22;54700;51.796;10.956;2024-02-04T08:20:28;9.60;76.50
67901;DHT22;54700;51.796;10.956;2024-02-04T08:22:55;9.70;75.80
67901;DHT22;54700;51.796;10.956;2024-02-04T08:25:23;9.70;76.00
67901;DHT22;54700;51.796;10.956;2024-02-04T08:27:51;9.70;75.70
67901;DHT22;54700;51.796;10.956;2024-02-04T08:30:18;9.80;75.70
67901;DHT22;54700;51.796;10.956;2024-02-04T08:32:45;9.80;75.40
67901;DHT22;54700;51.796;10.956;2024-02-04T08:35:12;9.80;75.20
67901;DHT22;54700;51.796;10.956;2024-02-04T08:37:38;9.80;75.20
67901;DHT22;54700;51.796;10.956;2024-02-04T08:40:06;9.80;74.90
67901;DHT22;54700;51.796;10.956;2024-02-04T08:42:35;9.90;74.50
67901;DHT22;54700;51.796;10.956;2024-02-04T08:45:02;9.90;74.40
67901;DHT22;54700;51.796;10.956;2024-02-04T08:47:29;10.00;73.90
67901;DHT22;54700;51.796;10.956;2024-02-04T08:49:56;10.00;73.60
67901;DHT22;54700;51.796;10.956;2024-02-04T08:52:26;10.10;72.50
67901;DHT22;54700;51.796;10.956;2024-02-04T08:54:53;10.10;72.20
67901;DHT22;54700;51.796;10.956;2024-02-04T08:57:20;10.20;72.00
67901;DHT22;54700;51.796;10.956;2024-02-04T08:59:48;10.20;71.40
67901;DHT22;54700;51.796;10.956;2024-02-04T09:02:15;10.30;71.30
67901;DHT22;54700;51.796;10.956;2024-02-04T09:04:42;10.40;71.10
67901;DHT22;54700;51.796;10.956;2024-02-04T09:07:09;10.40;71.40
67901;DHT22;54700;51.796;10.956;2024-02-04T09:09:36;10.40;71.70
67901;DHT22;54700;51.796;10.956;2024-02-04T09:12:03;10.40;72.20
67901;DHT22;54700;51.796;10.956;2024-02-04T09:14:33;10.40;72.60
67901;DHT22;54700;51.796;10.956;2024-02-04T09:17:03;10.40;73.00
67901;DHT22;54700;51.796;10.956;2024-02-04T09:19:31;10.40;73.50
67901;DHT22;54700;51.796;10.956;2024-02-04T09:21:58;10.40;74.30
67901;DHT22;54700;51.796;10.956;2024-02-04T09:24:26;10.30;74.70
67901;DHT22;54700;51.796;10.956;2024-02-04T09:26:53;10.30;75.30
67901;DHT22;54700;51.796;10.956;2024-02-04T09:29:20;10.30;75.80
67901;DHT22;54700;51.796;10.956;2024-02-04T09:31:47;10.20;76.20
67901;DHT22;54700;51.796;10.956;2024-02-04T09:34:16;10.20;76.70
67901;DHT22;54700;51.796;10.956;2024-02-04T09:36:44;10.20;77.90
67901;DHT22;54700;51.796;10.956;2024-02-04T09:39:11;10.20;79.00
67901;DHT22;54700;51.796;10.956;2024-02-04T09:41:37;10.10;79.30
67901;DHT22;54700;51.796;10.956;2024-02-04T09:44:04;10.10;79.70
67901;DHT22;54700;51.796;10.956;2024-02-04T09:46:33;10.10;80.80
67901;DHT22;54700;51.796;10.956;2024-02-04T09:49:00;10.10;81.90
67901;DHT22;54700;51.796;10.956;2024-02-04T09:51:29;10.10;82.20
67901;DHT22;54700;51.796;10.956;2024-02-04T09:53:57;10.00;82.40
67901;DHT22;54700;51.796;10.956;2024-02-04T09:56:29;10.00;82.40
67901;DHT22;54700;51.796;10.956;2024-02-04T09:58:58;10.10;82.40
67901;DHT22;54700;51.796;10.956;2024-02-04T10:01:25;10.10;82.40
67901;DHT22;54700;51.796;10.956;2024-02-04T10:03:53;10.00;82.80
67901;DHT22;54700;51.796;10.956;2024-02-04T10:06:20;10.00;83.10
67901;DHT22;54700;51.796;10.956;2024-02-04T10:08:48;10.00;83.90
67901;DHT22;54700;51.796;10.956;2024-02-04T10:11:15;9.90;85.50
67901;DHT22;54700;51.796;10.956;2024-02-04T10:13:43;9.90;85.50
67901;DHT22;54700;51.796;10.956;2024-02-04T10:16:11;9.80;86.20
67901;DHT22;54700;51.796;10.956;2024-02-04T10:18:40;9.70;87.40
67901;DHT22;54700;51.796;10.956;2024-02-04T10:21:14;9.70;88.80
67901;DHT22;54700;51.796;10.956;2024-02-04T10:23:41;9.70;88.10
67901;DHT22;54700;51.796;10.956;2024-02-04T10:26:09;9.60;84.90
67901;DHT22;54700;51.796;10.956;2024-02-04T10:28:36;9.60;84.20
67901;DHT22;54700;51.796;10.956;2024-02-04T10:31:04;9.60;82.10
67901;DHT22;54700;51.796;10.956;2024-02-04T10:33:30;9.70;82.00
67901;DHT22;54700;51.796;10.956;2024-02-04T10:35:57;9.70;81.50
67901;DHT22;54700;51.796;10.956;2024-02-04T10:38:24;9.70;81.40
67901;DHT22;54700;51.796;10.956;2024-02-04T10:40:52;9.80;81.60
67901;DHT22;54700;51.796;10.956;2024-02-04T10:43:22;9.80;79.30
67901;DHT22;54700;51.796;10.956;2024-02-04T10:45:50;9.80;79.10
67901;DHT22;54700;51.796;10.956;2024-02-04T10:48:19;9.90;78.30
67901;DHT22;54700;51.796;10.956;2024-02-04T10:50:49;9.90;77.10
67901;DHT22;54700;51.796;10.956;2024-02-04T10:53:22;9.90;76.40
67901;DHT22;54700;51.796;10.956;2024-02-04T10:55:48;10.00;76.10
67901;DHT22;54700;51.796;10.956;2024-02-04T10:58:18;10.00;74.60
67901;DHT22;54700;51.796;10.956;2024-02-04T11:00:48;10.10;74.20
67901;DHT22;54700;51.796;10.956;2024-02-04T11:03:15;10.10;73.40
67901;DHT22;54700;51.796;10.956;2024-02-04T11:05:43;10.10;73.50
67901;DHT22;54700;51.796;10.956;2024-02-04T11:08:13;10.10;72.80
67901;DHT22;54700;51.796;10.956;2024-02-04T11:10:40;10.10;73.20
67901;DHT22;54700;51.796;10.956;2024-02-04T11:13:07;10.10;73.40
67901;DHT22;54700;51.796;10.956;2024-02-04T11:15:36;10.10;72.50
67901;DHT22;54700;51.796;10.956;2024-02-04T11:18:21;10.10;71.60
67901;DHT22;54700;51.796;10.956;2024-02-04T11:21:03;10.10;72.20
67901;DHT22;54700;51.796;10.956;2024-02-04T11:23:51;10.10;72.40
67901;DHT22;54700;51.796;10.956;2024-02-04T11:26:31;10.10;72.80
67901;DHT22;54700;51.796;10.956;2024-02-04T11:29:00;10.00;73.70
67901;DHT22;54700;51.796;10.956;2024-02-04T11:31:28;10.00;74.20
67901;DHT22;54700;51.796;10.956;2024-02-04T11:33:57;10.00;74.10
67901;DHT22;54700;51.796;10.956;2024-02-04T11:36:25;10.00;73.60
67901;DHT22;54700;51.796;10.956;2024-02-04T11:38:52;10.10;74.30
67901;DHT22;54700;51.796;10.956;2024-02-04T11:41:22;10.00;73.00
67901;DHT22;54700;51.796;10.956;2024-02-04T11:43:52;10.00;73.00
67901;DHT22;54700;51.796;10.956;2024-02-04T11:46:20;10.00;72.90
67901;DHT22;54700;51.796;10.956;2024-02-04T11:48:51;10.00;72.90
67901;DHT22;54700;51.796;10.956;2024-02-04T11:51:22;10.00;72.80
67901;DHT22;54700;51.796;10.956;2024-02-04T11:53:50;10.10;72.90
67901;DHT22;54700;51.796;10.956;2024-02-04T11:56:17;10.10;72.50
67901;DHT22;54700;51.796;10.956;2024-02-04T11:58:45;10.10;72.60
67901;DHT22;54700;51.796;10.956;2024-02-04T12:01:12;10.00;73.00
67901;DHT22;54700;51.796;10.956;2024-02-04T12:03:39;10.10;73.00
67901;DHT22;54700;51.796;10.956;2024-02-04T12:06:06;10.10;73.00
67901;DHT22;54700;51.796;10.956;2024-02-04T12:08:35;10.00;73.60
67901;DHT22;54700;51.796;10.956;2024-02-04T12:11:02;10.00;73.30
67901;DHT22;54700;51.796;10.956;2024-02-04T12:13:30;10.00;73.30
67901;DHT22;54700;51.796;10.956;2024-02-04T12:16:03;9.90;73.60
67901;DHT22;54700;51.796;10.956;2024-02-04T12:18:33;9.80;73.70
67901;DHT22;54700;51.796;10.956;2024-02-04T12:21:00;9.80;74.10
67901;DHT22;54700;51.796;10.956;2024-02-04T12:23:29;9.70;74.60
67901;DHT22;54700;51.796;10.956;2024-02-04T12:25:58;9.60;74.70
67901;DHT22;54700;51.796;10.956;2024-02-04T12:28:24;9.60;74.90
67901;DHT22;54700;51.796;10.956;2024-02-04T12:30:52;9.60;74.40
67901;DHT22;54700;51.796;10.956;2024-02-04T12:33:20;9.70;74.20
67901;DHT22;54700;51.796;10.956;2024-02-04T12:35:49;9.70;74.00
67901;DHT22;54700;51.796;10.956;2024-02-04T12:38:16;9.70;73.60
67901;DHT22;54700;51.796;10.956;2024-02-04T12:40:45;9.80;72.20
67901;DHT22;54700;51.796;10.956;2024-02-04T12:43:13;9.80;72.50
67901;DHT22;54700;51.796;10.956;2024-02-04T12:45:40;9.90;72.10
67901;DHT22;54700;51.796;10.956;2024-02-04T12:48:08;9.90;71.80
67901;DHT22;54700;51.796;10.956;2024-02-04T12:50:36;9.90;71.80
67901;DHT22;54700;51.796;10.956;2024-02-04T12:53:04;10.00;71.20
67901;DHT22;54700;51.796;10.956;2024-02-04T12:55:32;10.00;70.50
67901;DHT22;54700;51.796;10.956;2024-02-04T12:58:03;10.00;70.10
67901;DHT22;54700;51.796;10.956;2024-02-04T13:00:32;10.00;69.50
67901;DHT22;54700;51.796;10.956;2024-02-04T13:03:00;10.00;69.70
67901;DHT22;54700;51.796;10.956;2024-02-04T13:05:27;10.00;69.30
67901;DHT22;54700;51.796;10.956;2024-02-04T13:07:56;10.00;69.30
67901;DHT22;54700;51.796;10.956;2024-02-04T13:10:25;10.00;69.40
67901;DHT22;54700;51.796;10.956;2024-02-04T13:12:59;10.00;68.90
67901;DHT22;54700;51.796;10.956;2024-02-04T13:15:27;9.90;69.10
67901;DHT22;54700;51.796;10.956;2024-02-04T13:17:56;9.90;69.30
67901;DHT22;54700;51.796;10.956;2024-02-04T13:20:24;9.90;69.60
67901;DHT22;54700;51.796;10.956;2024-02-04T13:22:51;9.80;69.60
67901;DHT22;54700;51.796;10.956;2024-02-04T13:25:19;9.80;69.70
67901;DHT22;54700;51.796;10.956;2024-02-04T13:27:47;9.80;70.00
67901;DHT22;54700;51.796;10.956;2024-02-04T13:30:14;9.80;70.40
67901;DHT22;54700;51.796;10.956;2024-02-04T13:32:41;9.70;70.60
67901;DHT22;54700;51.796;10.956;2024-02-04T13:35:10;9.70;70.70
67901;DHT22;54700;51.796;10.956;2024-02-04T13:37:37;9.70;71.20
67901;DHT22;54700;51.796;10.956;2024-02-04T13:40:06;9.70;71.70
67901;DHT22;54700;51.796;10.956;2024-02-04T13:42:34;9.70;72.10
67901;DHT22;54700;51.796;10.956;2024-02-04T13:45:02;9.60;72.40
67901;DHT22;54700;51.796;10.956;2024-02-04T13:47:29;9.60;72.90
67901;DHT22;54700;51.796;10.956;2024-02-04T13:49:56;9.60;73.30
67901;DHT22;54700;51.796;10.956;2024-02-04T13:52:24;9.60;73.50
67901;DHT22;54700;51.796;10.956;2024-02-04T13:54:51;9.60;73.80
67901;DHT22;54700;51.796;10.956;2024-02-04T13:57:18;9.60;74.20
67901;DHT22;54700;51.796;10.956;2024-02-04T13:59:45;9.60;74.60
67901;DHT22;54700;51.796;10.956;2024-02-04T14:02:12;9.50;74.60
67901;DHT22;54700;51.796;10.956;2024-02-04T14:04:39;9.50;74.70
67901;DHT22;54700;51.796;10.956;2024-02-04T14:07:05;9.50;74.90
67901;DHT22;54700;51.796;10.956;2024-02-04T14:09:34;9.50;75.00
67901;DHT22;54700;51.796;10.956;2024-02-04T14:12:01;9.60;75.20
67901;DHT22;54700;51.796;10.956;2024-02-04T14:14:28;9.60;75.30
67901;DHT22;54700;51.796;10.956;2024-02-04T14:16:56;9.60;75.20
67901;DHT22;54700;51.796;10.956;2024-02-04T14:19:23;9.60;75.20
67901;DHT22;54700;51.796;10.956;2024-02-04T14:21:50;9.70;75.30
67901;DHT22;54700;51.796;10.956;2024-02-04T14:24:18;9.70;74.90
67901;DHT22;54700;51.796;10.956;2024-02-04T14:26:47;9.70;75.00
67901;DHT22;54700;51.796;10.956;2024-02-04T14:29:14;9.70;74.90
67901;DHT22;54700;51.796;10.956;2024-02-04T14:31:42;9.70;75.00
67901;DHT22;54700;51.796;10.956;2024-02-04T14:34:09;9.70;75.10
67901;DHT22;54700;51.796;10.956;2024-02-04T14:36:36;9.70;75.50
67901;DHT22;54700;51.796;10.956;2024-02-04T14:39:03;9.70;75.60
67901;DHT22;54700;51.796;10.956;2024-02-04T14:41:31;9.70;75.90
67901;DHT22;54700;51.796;10.956;2024-02-04T14:44:01;9.70;76.30
67901;DHT22;54700;51.796;10.956;2024-02-04T14:46:28;9.70;76.30
67901;DHT22;54700;51.796;10.956;2024-02-04T14:48:55;9.80;76.30
67901;DHT22;54700;51.796;10.956;2024-02-04T14:51:22;9.80;76.50
67901;DHT22;54700;51.796;10.956;2024-02-04T14:53:49;9.80;76.50
67901;DHT22;54700;51.796;10.956;2024-02-04T14:56:16;9.70;76.60
67901;DHT22;54700;51.796;10.956;2024-02-04T14:58:43;9.80;76.60
67901;DHT22;54700;51.796;10.956;2024-02-04T15:01:11;9.80;76.70
67901;DHT22;54700;51.796;10.956;2024-02-04T15:03:38;9.80;76.70
67901;DHT22;54700;51.796;10.956;2024-02-04T15:06:05;9.80;76.90
67901;DHT22;54700;51.796;10.956;2024-02-04T15:08:32;9.90;77.10
67901;DHT22;54700;51.796;10.956;2024-02-04T15:10:58;9.80;78.10
67901;DHT22;54700;51.796;10.956;2024-02-04T15:13:25;9.80;78.80
67901;DHT22;54700;51.796;10.956;2024-02-04T15:15:53;9.70;80.70
67901;DHT22;54700;51.796;10.956;2024-02-04T15:18:23;9.70;79.00
67901;DHT22;54700;51.796;10.956;2024-02-04T15:20:52;9.70;80.20
67901;DHT22;54700;51.796;10.956;2024-02-04T15:23:19;9.60;79.30
67901;DHT22;54700;51.796;10.956;2024-02-04T15:25:47;9.60;79.20
67901;DHT22;54700;51.796;10.956;2024-02-04T15:28:14;9.60;79.60
67901;DHT22;54700;51.796;10.956;2024-02-04T15:30:42;9.50;79.90